Etusivu
METAR-TAF:

METAR-TAF

Lentoasemat :

Beatrice Municipal Airport

Beatrice, Nebraska, Yhdysvallat

Leveyspiiri: 40-18N, Pituuspiiri: 096-45W, korkeus merenpinnasta: 403 m

Tämänhetkinen sää

Tämä raportti tehtiin 32 minuuttia sitten, kello 13.35 UTC
Tuuli 4 kn lännestä/luoteesta
Lämpötila 16°C
Kosteus 82%
Ilmanpaine 1012 hPa
Näkyvyys: 16.1 km
Pilvistä 9000 ft:n korkeudessa
ukkosmyrsky, heikkoa sadetta

METAR: KBIE 271335Z AUTO 30004KT 10SM -TSRA OVC090 16/13 A2989 RMK AO2 LTG DSNT W THRU NE T01550125

Aika: 09:07 (14:07 UTC)


TAF: puuttuu

Säähavainnot ja -ennusteet yli 4000 lentoasemalta (METAR- ja TAF-raportit).

Käytössä olevat sääasemat on merkitty karttaan keltaisilla ja punaisilla pisteillä.

Aseta hiiri pisteen päälle nähdäksesi sääaseman nimen.

Klikkaa sitten nähdäksesi säähavainnot ja -ennusteet.

Kartan vaihtaminen: klikkaa mustalla rastilla varustettuja vihreitä pisteitä, niin voit zoomata sisään; viivalla varustettua vihreää pistettä, niin voit zoomata ulos tai vihreitä nuolia, niin pääset viereisille kartoille.


METAR-TAF: